createdAt,value
2022-11-15T00:00:24.837Z,6.23
2022-11-15T00:03:19.868Z,6.23
2022-11-15T00:06:11.843Z,6.21
2022-11-15T00:09:03.606Z,6.20
2022-11-15T00:11:54.664Z,6.17
2022-11-15T00:14:45.101Z,6.13
2022-11-15T00:17:35.306Z,6.14
2022-11-15T00:20:25.655Z,6.17
2022-11-15T00:23:16.141Z,6.19
2022-11-15T00:26:06.419Z,6.23
2022-11-15T00:28:56.823Z,6.21
2022-11-15T00:31:46.971Z,6.19
2022-11-15T00:34:38.282Z,6.17
2022-11-15T00:37:30.407Z,6.14
2022-11-15T00:40:21.181Z,6.15
2022-11-15T00:43:11.787Z,6.19
2022-11-15T00:46:03.498Z,6.20
2022-11-15T00:48:53.947Z,6.19
2022-11-15T00:51:44.362Z,6.19
2022-11-15T00:54:35.650Z,6.17
2022-11-15T00:57:27.723Z,6.09
2022-11-15T01:00:18.811Z,5.99
2022-11-15T01:03:09.513Z,6.01
2022-11-15T01:06:02.402Z,6.02
2022-11-15T01:08:54.502Z,5.99
2022-11-15T01:11:45.034Z,5.99
2022-11-15T01:14:37.992Z,6.02
2022-11-15T01:17:28.164Z,6.02
2022-11-15T01:20:19.568Z,6.08
2022-11-15T01:23:10.175Z,6.11
2022-11-15T01:26:24.360Z,6.13
2022-11-15T01:29:14.502Z,6.16
2022-11-15T01:32:05.853Z,6.17
2022-11-15T01:34:56.476Z,6.22
2022-11-15T01:37:47.723Z,6.24
2022-11-15T01:40:39.229Z,6.26
2022-11-15T01:43:34.484Z,6.25
2022-11-15T01:46:47.019Z,6.22
2022-11-15T01:49:39.780Z,6.18
2022-11-15T01:52:33.432Z,6.09
2022-11-15T01:55:27.120Z,6.01
2022-11-15T01:58:19.264Z,6.00
2022-11-15T02:01:10.458Z,6.04
2022-11-15T02:04:06.537Z,6.04
2022-11-15T02:06:58.234Z,6.04
2022-11-15T02:09:48.791Z,6.06
2022-11-15T02:12:39.201Z,6.08
2022-11-15T02:15:33.922Z,6.08
2022-11-15T02:18:37.830Z,6.09
2022-11-15T02:22:01.809Z,6.05
2022-11-15T02:25:24.195Z,5.95
2022-11-15T02:28:34.625Z,5.85
2022-11-15T02:31:39.377Z,5.84
2022-11-15T02:35:14.435Z,5.85
2022-11-15T02:38:29.207Z,5.95
2022-11-15T02:41:31.842Z,5.98
2022-11-15T02:44:29.132Z,5.99
2022-11-15T02:47:20.206Z,6.04
2022-11-15T02:50:12.894Z,6.03
2022-11-15T02:53:04.870Z,6.03
2022-11-15T02:55:55.760Z,6.01
2022-11-15T02:58:53.740Z,6.01
2022-11-15T03:02:12.813Z,6.04
2022-11-15T03:05:29.279Z,6.03
2022-11-15T03:08:40.680Z,5.96
2022-11-15T03:11:31.652Z,5.95
2022-11-15T03:14:32.240Z,5.93
2022-11-15T03:17:32.387Z,5.96
2022-11-15T03:20:22.780Z,5.93
2022-11-15T03:23:14.691Z,5.83
2022-11-15T03:26:05.712Z,5.79
2022-11-15T03:29:08.504Z,5.80
2022-11-15T03:32:03.531Z,5.76
2022-11-15T03:35:20.583Z,5.71
2022-11-15T03:38:29.009Z,5.68
2022-11-15T03:41:30.148Z,5.64
2022-11-15T03:45:02.850Z,5.64
2022-11-15T03:48:04.357Z,5.68
2022-11-15T03:50:54.654Z,5.62
2022-11-15T03:53:45.280Z,5.53
2022-11-15T03:56:37.183Z,5.49
2022-11-15T03:59:27.770Z,5.44
2022-11-15T04:02:18.254Z,5.44
2022-11-15T04:05:09.078Z,5.44
2022-11-15T04:08:01.165Z,5.45
2022-11-15T04:10:54.861Z,5.49
2022-11-15T04:13:46.975Z,5.48
2022-11-15T04:16:43.566Z,5.55
2022-11-15T04:19:49.298Z,5.58
2022-11-15T04:22:58.943Z,5.57
2022-11-15T04:25:51.929Z,5.58
2022-11-15T04:29:01.205Z,5.59
2022-11-15T04:31:51.832Z,5.62
2022-11-15T04:34:44.525Z,5.64
2022-11-15T04:37:35.005Z,5.62
2022-11-15T04:40:28.012Z,5.59
2022-11-15T04:43:18.319Z,5.56
2022-11-15T04:46:09.292Z,5.60
2022-11-15T04:49:01.127Z,5.60
2022-11-15T04:51:51.823Z,5.62
2022-11-15T04:54:43.836Z,5.61
2022-11-15T04:57:35.651Z,5.61
2022-11-15T05:00:26.934Z,5.63
2022-11-15T05:03:35.989Z,5.67
2022-11-15T05:06:26.288Z,5.61
2022-11-15T05:09:20.624Z,5.56
2022-11-15T05:12:11.262Z,5.54
2022-11-15T05:15:02.560Z,5.54
2022-11-15T05:17:53.096Z,5.52
2022-11-15T05:20:45.127Z,5.50
2022-11-15T05:23:35.763Z,5.48
2022-11-15T05:26:27.903Z,5.49
2022-11-15T05:29:19.446Z,5.49
2022-11-15T05:32:11.445Z,5.49
2022-11-15T05:35:02.683Z,5.47
2022-11-15T05:37:52.916Z,5.48
2022-11-15T05:40:44.494Z,5.49
2022-11-15T05:43:35.749Z,5.49
2022-11-15T05:46:27.414Z,5.52
2022-11-15T05:49:20.792Z,5.52
2022-11-15T05:52:12.842Z,5.55
2022-11-15T05:55:04.541Z,5.56
2022-11-15T05:57:55.136Z,5.54
2022-11-15T06:00:46.476Z,5.59
2022-11-15T06:03:37.101Z,5.64
2022-11-15T06:06:29.153Z,5.64
2022-11-15T06:09:19.639Z,5.57
2022-11-15T06:12:10.129Z,5.52
2022-11-15T06:15:01.380Z,5.47
2022-11-15T06:17:54.325Z,5.48
2022-11-15T06:20:45.145Z,5.49
2022-11-15T06:23:36.773Z,5.49
2022-11-15T06:26:27.442Z,5.45
2022-11-15T06:29:18.493Z,5.45
2022-11-15T06:32:09.136Z,5.44
2022-11-15T06:35:00.633Z,5.43
2022-11-15T06:37:51.127Z,5.42
2022-11-15T06:40:42.305Z,5.44
2022-11-15T06:43:33.201Z,5.42
2022-11-15T06:46:23.677Z,5.48
2022-11-15T06:49:14.178Z,5.46
2022-11-15T06:52:04.676Z,5.47
2022-11-15T06:54:54.819Z,5.49
2022-11-15T06:57:52.614Z,5.51
2022-11-15T07:00:44.422Z,5.52
2022-11-15T07:03:37.458Z,5.55
2022-11-15T07:06:29.804Z,5.57
2022-11-15T07:09:23.022Z,5.54
2022-11-15T07:12:13.416Z,5.57
2022-11-15T07:15:04.434Z,5.60
2022-11-15T07:17:54.866Z,5.58
2022-11-15T07:20:45.047Z,5.60
2022-11-15T07:23:35.648Z,5.64
2022-11-15T07:26:25.859Z,5.66
2022-11-15T07:29:17.165Z,5.64
2022-11-15T07:32:07.926Z,5.64
2022-11-15T07:34:59.991Z,5.66
2022-11-15T07:38:03.501Z,5.71
2022-11-15T07:41:03.709Z,5.75
2022-11-15T07:43:55.312Z,5.71
2022-11-15T07:46:45.666Z,5.70
2022-11-15T07:49:36.049Z,5.73
2022-11-15T07:52:27.218Z,5.72
2022-11-15T07:55:18.086Z,5.75
2022-11-15T07:58:10.513Z,5.72
2022-11-15T08:01:02.818Z,5.64
2022-11-15T08:03:52.938Z,5.48
2022-11-15T08:06:44.694Z,5.45
2022-11-15T08:09:35.455Z,5.41
2022-11-15T08:12:26.867Z,5.34
2022-11-15T08:15:18.162Z,5.23
2022-11-15T08:18:17.326Z,5.27
2022-11-15T08:21:07.900Z,5.33
2022-11-15T08:23:58.556Z,5.41
2022-11-15T08:26:49.228Z,5.43
2022-11-15T08:29:39.786Z,5.47
2022-11-15T08:32:30.537Z,5.47
2022-11-15T08:35:27.684Z,5.46
2022-11-15T08:38:15.065Z,5.49
2022-11-15T08:41:07.302Z,5.49
2022-11-15T08:43:57.694Z,5.44
2022-11-15T08:46:51.362Z,5.39
2022-11-15T08:49:42.887Z,5.37
2022-11-15T08:52:33.752Z,5.29
2022-11-15T08:55:24.966Z,5.23
2022-11-15T08:58:15.727Z,5.21
2022-11-15T09:01:07.385Z,5.13
2022-11-15T09:03:58.154Z,5.09
2022-11-15T09:06:50.337Z,5.10
2022-11-15T09:09:41.017Z,5.11
2022-11-15T09:12:31.460Z,5.09
2022-11-15T09:15:21.923Z,5.11
2022-11-15T09:18:12.778Z,5.14
2022-11-15T09:21:04.041Z,5.06
2022-11-15T09:23:56.312Z,5.07
2022-11-15T09:26:47.111Z,5.11
2022-11-15T09:29:37.748Z,5.23
2022-11-15T09:32:38.822Z,5.35
2022-11-15T09:35:25.189Z,5.43
2022-11-15T09:38:15.793Z,5.55
2022-11-15T09:41:34.794Z,5.64
2022-11-15T09:44:41.986Z,5.68
2022-11-15T09:47:59.677Z,5.76
2022-11-15T09:50:54.737Z,5.89
2022-11-15T09:54:30.817Z,5.98
2022-11-15T09:56:32.412Z,6.02
2022-11-15T09:59:22.185Z,6.06
2022-11-15T13:06:58.856Z,6.95
2022-11-15T13:09:42.364Z,6.91
2022-11-15T13:12:37.258Z,6.92
2022-11-15T13:15:42.837Z,6.94
2022-11-15T13:18:47.576Z,6.94
2022-11-15T13:22:04.358Z,7.01
2022-11-15T13:24:40.072Z,7.06
2022-11-15T13:27:19.862Z,7.17
2022-11-15T13:29:52.298Z,7.24
2022-11-15T13:32:24.775Z,7.28
2022-11-15T13:34:58.995Z,7.36
2022-11-15T13:37:33.018Z,7.42
2022-11-15T13:40:31.919Z,7.46
2022-11-15T13:43:33.457Z,7.52
2022-11-15T13:46:26.771Z,7.58
2022-11-15T13:49:09.035Z,7.62
2022-11-15T13:51:52.818Z,7.61
2022-11-15T13:54:48.287Z,7.59
2022-11-15T13:57:29.778Z,7.59
2022-11-15T14:02:55.659Z,7.59
2022-11-15T14:05:29.776Z,7.57
2022-11-15T14:08:07.495Z,7.52
2022-11-15T14:10:40.446Z,7.48
2022-11-15T14:13:32.697Z,7.44
2022-11-15T14:16:22.857Z,7.45
2022-11-15T14:18:56.939Z,7.45
2022-11-15T14:21:29.710Z,7.51
2022-11-15T14:24:22.640Z,7.50
2022-11-15T14:26:54.995Z,7.47
2022-11-15T14:29:31.876Z,7.43
2022-11-15T14:32:26.179Z,7.42
2022-11-15T14:35:02.328Z,7.43
2022-11-15T14:37:39.843Z,7.42
2022-11-15T14:40:20.002Z,7.45
2022-11-15T14:42:52.481Z,7.47
2022-11-15T14:45:27.526Z,7.48
2022-11-15T14:48:00.107Z,7.47
2022-11-15T14:50:32.952Z,7.48
2022-11-15T14:53:06.780Z,7.50
2022-11-15T14:55:39.226Z,7.52
2022-11-15T14:58:12.212Z,7.53
2022-11-15T15:00:45.405Z,7.53
2022-11-15T15:03:18.238Z,7.54
2022-11-15T15:05:50.993Z,7.56
2022-11-15T15:08:25.310Z,7.56
2022-11-15T15:10:57.904Z,7.60
2022-11-15T15:13:31.552Z,7.60
2022-11-15T15:16:04.306Z,7.61
2022-11-15T15:18:38.142Z,7.63
2022-11-15T15:21:37.236Z,7.64
2022-11-15T15:24:07.541Z,7.62
2022-11-15T15:26:40.319Z,7.62
2022-11-15T15:29:13.212Z,7.64
2022-11-15T15:31:46.892Z,7.66
2022-11-15T15:34:19.676Z,7.68
2022-11-15T15:37:25.281Z,7.67
2022-11-15T15:39:59.201Z,7.68
2022-11-15T15:42:32.681Z,7.69
2022-11-15T15:45:06.876Z,7.70
2022-11-15T15:47:40.824Z,7.69
2022-11-15T15:50:30.910Z,7.71
2022-11-15T15:53:06.142Z,7.72
2022-11-15T15:55:39.552Z,7.74
2022-11-15T15:58:12.463Z,7.77
2022-11-15T16:00:45.083Z,7.78
2022-11-15T16:03:17.825Z,7.81
2022-11-15T16:05:50.363Z,7.82
2022-11-15T16:08:31.966Z,7.83
2022-11-15T16:11:04.667Z,7.84
2022-11-15T16:13:36.887Z,7.86
2022-11-15T16:16:11.844Z,7.84
2022-11-15T16:18:45.096Z,7.84
2022-11-15T16:21:18.152Z,7.87
2022-11-15T16:23:51.288Z,7.84
2022-11-15T16:26:43.898Z,7.86
2022-11-15T16:29:17.562Z,7.86
2022-11-15T16:31:52.063Z,7.85
2022-11-15T16:34:30.543Z,7.87
2022-11-15T16:37:02.400Z,7.91
2022-11-15T16:39:36.157Z,7.92
2022-11-15T16:42:10.725Z,8.01
2022-11-15T16:44:43.406Z,8.04
2022-11-15T16:47:23.154Z,8.07
2022-11-15T16:49:55.592Z,8.07
2022-11-15T16:52:28.368Z,8.07
2022-11-15T16:55:00.848Z,8.08
2022-11-15T16:57:34.264Z,8.10
2022-11-15T17:00:08.446Z,8.10
2022-11-15T17:02:41.354Z,8.11
2022-11-15T17:05:18.830Z,8.12
2022-11-15T17:07:50.584Z,8.11
2022-11-15T17:10:25.796Z,8.13
2022-11-15T17:12:58.471Z,8.14
2022-11-15T17:15:30.837Z,8.13
2022-11-15T18:08:15.255Z,8.28
2022-11-15T18:10:43.370Z,8.23
2022-11-15T18:13:15.755Z,8.23
2022-11-15T18:15:56.452Z,8.21
2022-11-15T18:18:34.612Z,8.17
2022-11-15T18:21:15.326Z,8.14
2022-11-15T18:23:48.437Z,8.15
2022-11-15T18:26:26.638Z,8.17
2022-11-15T18:28:57.925Z,8.16
2022-11-15T18:31:31.735Z,8.18
2022-11-15T18:34:04.096Z,8.22
2022-11-15T18:36:38.603Z,8.22
2022-11-15T18:39:16.630Z,8.28
2022-11-15T18:41:49.139Z,8.29
2022-11-15T18:44:21.555Z,8.29
2022-11-15T18:46:55.883Z,8.29
2022-11-15T18:49:28.506Z,8.28
2022-11-15T18:52:00.949Z,8.27
2022-11-15T18:54:33.531Z,8.26
2022-11-15T18:57:06.063Z,8.26
2022-11-15T18:59:38.620Z,8.25
2022-11-15T19:02:13.542Z,8.21
2022-11-15T19:04:45.964Z,8.19
2022-11-15T19:07:18.449Z,8.17
2022-11-15T19:09:51.097Z,8.17
2022-11-15T19:12:23.549Z,8.18
2022-11-15T19:14:56.978Z,8.24
2022-11-15T19:17:31.275Z,8.26
2022-11-15T19:20:04.671Z,8.23
2022-11-15T19:22:38.314Z,8.23
2022-11-15T19:25:28.966Z,8.18
2022-11-15T19:28:01.309Z,8.19
2022-11-15T19:30:34.356Z,8.22
2022-11-15T19:33:06.879Z,8.23
2022-11-15T19:35:40.075Z,8.23
2022-11-15T19:38:16.133Z,8.24
2022-11-15T19:40:50.058Z,8.25
2022-11-15T19:43:22.581Z,8.21
2022-11-15T19:46:02.304Z,8.19
2022-11-15T19:48:34.577Z,8.20
2022-11-15T19:51:09.406Z,8.16
2022-11-15T19:53:42.515Z,8.13
2022-11-15T19:56:18.153Z,8.10
2022-11-15T19:58:54.826Z,8.09
2022-11-15T20:01:33.516Z,8.08
2022-11-15T20:04:06.237Z,8.07
2022-11-15T20:07:00.204Z,8.10
2022-11-15T20:09:33.319Z,8.12
2022-11-15T20:12:06.685Z,8.12
2022-11-15T20:14:39.661Z,8.17
2022-11-15T20:17:12.283Z,8.18
2022-11-15T20:19:45.218Z,8.19
2022-11-15T20:22:17.975Z,8.17
2022-11-15T20:24:50.982Z,8.13
2022-11-15T20:27:23.507Z,8.13
2022-11-15T20:29:56.049Z,8.12
2022-11-15T20:32:28.459Z,8.09
2022-11-15T20:35:01.245Z,8.07
2022-11-15T20:37:34.025Z,8.06
2022-11-15T20:40:07.716Z,8.05
2022-11-15T20:42:41.599Z,8.05
2022-11-15T20:45:14.793Z,8.06
2022-11-15T20:47:47.544Z,8.04
2022-11-15T20:50:40.865Z,8.03
2022-11-15T20:52:57.866Z,8.02
2022-11-15T20:55:29.570Z,8.01
2022-11-15T20:58:02.968Z,7.91
2022-11-15T21:00:37.079Z,7.91
2022-11-15T21:03:27.605Z,7.91
2022-11-15T21:06:01.666Z,7.91
2022-11-15T21:08:53.222Z,7.92
2022-11-15T21:11:43.967Z,7.87
2022-11-15T21:14:20.796Z,7.91
2022-11-15T21:16:54.114Z,7.91
2022-11-15T21:19:32.613Z,7.91
2022-11-15T21:22:02.588Z,8.00
2022-11-15T21:24:35.102Z,8.00
2022-11-15T21:27:08.336Z,8.01
2022-11-15T21:29:40.878Z,8.05
2022-11-15T21:32:13.394Z,8.06
2022-11-15T21:34:47.262Z,8.08
2022-11-15T21:37:19.533Z,8.12
2022-11-15T21:39:51.801Z,8.14
2022-11-15T21:42:24.247Z,8.13
2022-11-15T21:44:57.150Z,8.14
2022-11-15T21:47:29.616Z,8.12
2022-11-15T21:50:02.333Z,8.09
2022-11-15T21:52:34.853Z,8.11
2022-11-15T21:55:08.210Z,8.13
2022-11-15T21:57:40.865Z,8.16
2022-11-15T22:00:34.649Z,8.17
2022-11-15T22:03:07.071Z,8.14
2022-11-15T22:05:40.403Z,8.11
2022-11-15T22:08:12.974Z,8.09
2022-11-15T22:10:51.230Z,8.08
2022-11-15T22:13:25.338Z,8.08
2022-11-15T22:15:58.434Z,8.09
2022-11-15T22:18:31.706Z,8.13
2022-11-15T22:21:13.148Z,8.16
2022-11-15T22:23:46.738Z,8.17
2022-11-15T22:26:23.765Z,8.20
2022-11-15T22:28:56.650Z,8.22
2022-11-15T22:31:29.594Z,8.23
2022-11-15T22:34:02.331Z,8.26
2022-11-15T22:36:52.271Z,8.27
2022-11-15T22:39:09.748Z,8.27
2022-11-15T22:41:42.636Z,8.27
2022-11-15T22:44:15.977Z,8.24
2022-11-15T22:46:48.674Z,8.27
2022-11-15T22:49:21.487Z,8.25
2022-11-15T22:51:54.307Z,8.25
2022-11-15T22:54:27.442Z,8.24
2022-11-15T22:57:00.509Z,8.26
2022-11-15T22:59:35.384Z,8.28
2022-11-15T23:02:08.559Z,8.32
2022-11-15T23:04:42.166Z,8.32
2022-11-15T23:07:14.943Z,8.29
2022-11-15T23:09:52.131Z,8.28
2022-11-15T23:12:42.285Z,8.29
2022-11-15T23:15:15.850Z,8.28
2022-11-15T23:17:49.094Z,8.28
2022-11-15T23:20:42.334Z,8.28
2022-11-15T23:22:56.807Z,8.29
2022-11-15T23:25:29.745Z,8.29
2022-11-15T23:28:04.691Z,8.32
2022-11-15T23:30:56.729Z,8.30
2022-11-15T23:33:47.450Z,8.31
2022-11-15T23:36:20.356Z,8.31
2022-11-15T23:38:53.729Z,8.31
2022-11-15T23:41:26.810Z,8.30
2022-11-15T23:43:59.973Z,8.29
2022-11-15T23:46:33.325Z,8.26
2022-11-15T23:49:06.103Z,8.24
2022-11-15T23:51:39.558Z,8.23
2022-11-15T23:54:12.481Z,8.20
2022-11-15T23:56:45.353Z,8.15
2022-11-15T23:59:20.477Z,8.13
